CQH8823 ZSQD-ZYTX
Flight info
| Callsign | CQH8823 |
|---|---|
| Flight time | 1h 20m |
| Altitude | 24600 |
| Route | TEKAM W172 IGDEG W173 NIXEP W8 DOBGA W202 UDETI A588 TOSID |
| Aircraft | A320/M-SDE3FGHIRWY/LB1 |
Departure
| Time | 2026-05-06 12:21 |
|---|---|
| Airport | Qingdao Jiaodong International Airport (ZSQD) |
Arrival
| Time | 2026-05-06 13:42 |
|---|---|
| Airport | Shenyang Taoxian International Airport (ZYTX) |
| Time | Latitude | Longitude | Altitude | Speed | Heading |
|---|---|---|---|---|---|
| 2026-05-06 11:23 | 36.36483 | 120.08996 | 36 ft | 0 kts | 132° |
| 2026-05-06 12:06 | 36.36488 | 120.08989 | 35 ft | 3 kts | 131° |
| 2026-05-06 12:06 | 36.36501 | 120.08970 | 32 ft | 3 kts | 121° |
| 2026-05-06 12:07 | 36.36509 | 120.08949 | 34 ft | 3 kts | 91° |
| 2026-05-06 12:07 | 36.36507 | 120.08932 | 33 ft | 1 kts | 44° |
| 2026-05-06 12:07 | 36.36505 | 120.08930 | 32 ft | 0 kts | 43° |
| 2026-05-06 12:12 | 36.36506 | 120.08930 | 35 ft | 1 kts | 43° |
| 2026-05-06 12:12 | 36.36556 | 120.08984 | 38 ft | 8 kts | 30° |
| 2026-05-06 12:12 | 36.36590 | 120.08984 | 37 ft | 7 kts | 343° |
| 2026-05-06 12:13 | 36.36633 | 120.08968 | 38 ft | 6 kts | 343° |
| 2026-05-06 12:13 | 36.36667 | 120.08955 | 38 ft | 5 kts | 344° |
| 2026-05-06 12:13 | 36.36705 | 120.08962 | 38 ft | 9 kts | 27° |
| 2026-05-06 12:13 | 36.36750 | 120.09010 | 37 ft | 8 kts | 41° |
| 2026-05-06 12:14 | 36.36790 | 120.09053 | 36 ft | 7 kts | 42° |
| 2026-05-06 12:14 | 36.36829 | 120.09119 | 37 ft | 11 kts | 70° |
| 2026-05-06 12:14 | 36.36856 | 120.09225 | 37 ft | 14 kts | 72° |
| 2026-05-06 12:14 | 36.36880 | 120.09315 | 37 ft | 4 kts | 72° |
| 2026-05-06 12:15 | 36.36888 | 120.09345 | 37 ft | 5 kts | 72° |
| 2026-05-06 12:15 | 36.36900 | 120.09392 | 37 ft | 5 kts | 72° |
| 2026-05-06 12:15 | 36.36910 | 120.09433 | 37 ft | 6 kts | 72° |
| 2026-05-06 12:15 | 36.36929 | 120.09510 | 35 ft | 10 kts | 72° |
| 2026-05-06 12:16 | 36.37001 | 120.09537 | 37 ft | 15 kts | 345° |
| 2026-05-06 12:16 | 36.37117 | 120.09491 | 37 ft | 20 kts | 342° |
| 2026-05-06 12:16 | 36.37267 | 120.09432 | 36 ft | 23 kts | 342° |
| 2026-05-06 12:16 | 36.37414 | 120.09374 | 37 ft | 21 kts | 342° |
| 2026-05-06 12:17 | 36.37547 | 120.09320 | 37 ft | 20 kts | 342° |
| 2026-05-06 12:17 | 36.37696 | 120.09262 | 37 ft | 25 kts | 342° |
| 2026-05-06 12:17 | 36.37855 | 120.09199 | 36 ft | 23 kts | 342° |
| 2026-05-06 12:17 | 36.37978 | 120.09150 | 37 ft | 15 kts | 342° |
| 2026-05-06 12:18 | 36.38055 | 120.09119 | 37 ft | 10 kts | 342° |
| 2026-05-06 12:18 | 36.38103 | 120.09132 | 37 ft | 6 kts | 48° |
| 2026-05-06 12:18 | 36.38112 | 120.09164 | 37 ft | 0 kts | 79° |
| 2026-05-06 12:19 | 36.38112 | 120.09166 | 37 ft | 1 kts | 79° |
| 2026-05-06 12:19 | 36.38116 | 120.09203 | 38 ft | 7 kts | 87° |
| 2026-05-06 12:19 | 36.38106 | 120.09284 | 37 ft | 10 kts | 108° |
| 2026-05-06 12:20 | 36.38071 | 120.09342 | 38 ft | 7 kts | 160° |
| 2026-05-06 12:20 | 36.38062 | 120.09345 | 36 ft | 0 kts | 163° |
| 2026-05-06 12:20 | 36.37915 | 120.09401 | 38 ft | 58 kts | 162° |
| 2026-05-06 12:21 | 36.37321 | 120.09636 | 38 ft | 119 kts | 162° |
| 2026-05-06 12:21 | 36.36379 | 120.10006 | 146 ft | 155 kts | 162° |
| 2026-05-06 12:21 | 36.35361 | 120.10404 | 788 ft | 153 kts | 162° |
| 2026-05-06 12:21 | 36.34360 | 120.10864 | 1434 ft | 155 kts | 157° |
| 2026-05-06 12:22 | 36.33441 | 120.11564 | 2087 ft | 155 kts | 155° |
| 2026-05-06 12:22 | 36.32546 | 120.12310 | 2652 ft | 155 kts | 154° |
| 2026-05-06 12:22 | 36.31642 | 120.13063 | 3135 ft | 160 kts | 154° |
| 2026-05-06 12:22 | 36.30645 | 120.13876 | 3365 ft | 183 kts | 153° |
| 2026-05-06 12:23 | 36.29510 | 120.14794 | 3636 ft | 207 kts | 153° |
| 2026-05-06 12:23 | 36.28238 | 120.15832 | 3983 ft | 229 kts | 149° |
| 2026-05-06 12:23 | 36.27219 | 120.17416 | 4608 ft | 249 kts | 111° |
| 2026-05-06 12:23 | 36.27082 | 120.19620 | 5095 ft | 272 kts | 84° |
| 2026-05-06 12:24 | 36.27525 | 120.22000 | 5533 ft | 292 kts | 72° |
| 2026-05-06 12:24 | 36.28213 | 120.24403 | 6293 ft | 298 kts | 68° |
| 2026-05-06 12:24 | 36.28967 | 120.26811 | 7111 ft | 301 kts | 68° |
| 2026-05-06 12:24 | 36.29715 | 120.29245 | 7966 ft | 303 kts | 68° |
| 2026-05-06 12:25 | 36.30761 | 120.31500 | 8771 ft | 304 kts | 46° |
| 2026-05-06 12:25 | 36.32417 | 120.33088 | 9582 ft | 301 kts | 22° |
| 2026-05-06 12:25 | 36.34422 | 120.33754 | 10281 ft | 302 kts | 0° |
| 2026-05-06 12:25 | 36.36541 | 120.33390 | 10507 ft | 318 kts | 339° |
| 2026-05-06 12:26 | 36.38721 | 120.32526 | 10804 ft | 337 kts | 339° |
| 2026-05-06 12:26 | 36.40992 | 120.31671 | 11411 ft | 346 kts | 345° |
| 2026-05-06 12:26 | 36.43409 | 120.31373 | 12101 ft | 354 kts | 359° |
| 2026-05-06 12:26 | 36.45869 | 120.31849 | 12789 ft | 363 kts | 13° |
| 2026-05-06 12:27 | 36.48299 | 120.32781 | 13478 ft | 367 kts | 14° |
| 2026-05-06 12:27 | 36.50756 | 120.33728 | 14092 ft | 372 kts | 14° |
| 2026-05-06 12:27 | 36.53246 | 120.34683 | 14660 ft | 377 kts | 14° |
| 2026-05-06 12:27 | 36.55768 | 120.35647 | 15216 ft | 382 kts | 14° |
| 2026-05-06 12:28 | 36.58323 | 120.36621 | 15483 ft | 385 kts | 14° |
| 2026-05-06 12:28 | 36.60857 | 120.37590 | 15551 ft | 386 kts | 14° |
| 2026-05-06 12:28 | 36.63423 | 120.38572 | 15561 ft | 386 kts | 14° |
| 2026-05-06 12:28 | 36.65989 | 120.39552 | 15558 ft | 386 kts | 14° |
| 2026-05-06 12:29 | 36.68606 | 120.40555 | 16030 ft | 390 kts | 13° |
| 2026-05-06 12:29 | 36.71177 | 120.41543 | 16620 ft | 394 kts | 13° |
| 2026-05-06 12:29 | 36.73813 | 120.42556 | 17180 ft | 399 kts | 13° |
| 2026-05-06 12:29 | 36.76516 | 120.43591 | 17743 ft | 403 kts | 13° |
| 2026-05-06 12:30 | 36.79177 | 120.44610 | 18262 ft | 408 kts | 13° |
| 2026-05-06 12:30 | 36.81898 | 120.45654 | 18516 ft | 410 kts | 13° |
| 2026-05-06 12:30 | 36.84641 | 120.46711 | 18978 ft | 414 kts | 13° |
| 2026-05-06 12:30 | 36.87401 | 120.47775 | 19507 ft | 417 kts | 12° |
| 2026-05-06 12:31 | 36.90182 | 120.48848 | 20024 ft | 420 kts | 12° |
| 2026-05-06 12:31 | 36.92988 | 120.49927 | 20529 ft | 424 kts | 12° |
| 2026-05-06 12:31 | 36.95820 | 120.51015 | 21034 ft | 427 kts | 12° |
| 2026-05-06 12:31 | 36.98670 | 120.52112 | 21529 ft | 431 kts | 11° |
| 2026-05-06 12:32 | 37.01549 | 120.53224 | 22016 ft | 435 kts | 11° |
| 2026-05-06 12:32 | 37.04450 | 120.54347 | 22495 ft | 438 kts | 11° |
| 2026-05-06 12:32 | 37.07412 | 120.55496 | 22963 ft | 442 kts | 11° |
| 2026-05-06 12:32 | 37.10320 | 120.56626 | 23404 ft | 445 kts | 11° |
| 2026-05-06 12:33 | 37.13293 | 120.57783 | 23781 ft | 449 kts | 11° |
| 2026-05-06 12:33 | 37.16281 | 120.58942 | 24184 ft | 451 kts | 10° |
| 2026-05-06 12:33 | 37.19281 | 120.60107 | 24406 ft | 452 kts | 10° |
| 2026-05-06 12:33 | 37.22268 | 120.61269 | 24465 ft | 446 kts | 10° |
| 2026-05-06 12:34 | 37.25218 | 120.62422 | 24473 ft | 443 kts | 10° |
| 2026-05-06 12:34 | 37.28153 | 120.63568 | 24472 ft | 442 kts | 10° |
| 2026-05-06 12:34 | 37.31084 | 120.64711 | 24470 ft | 441 kts | 10° |
| 2026-05-06 12:34 | 37.34020 | 120.65854 | 24474 ft | 441 kts | 10° |
| 2026-05-06 12:35 | 37.36950 | 120.66994 | 24474 ft | 441 kts | 10° |
| 2026-05-06 12:35 | 37.39879 | 120.68135 | 24476 ft | 441 kts | 10° |
| 2026-05-06 12:35 | 37.42805 | 120.69278 | 24474 ft | 440 kts | 10° |
| 2026-05-06 12:35 | 37.45729 | 120.70420 | 24475 ft | 440 kts | 10° |
| 2026-05-06 12:36 | 37.48654 | 120.71562 | 24474 ft | 440 kts | 10° |
| 2026-05-06 12:36 | 37.51570 | 120.72706 | 24471 ft | 439 kts | 11° |
| 2026-05-06 12:36 | 37.54485 | 120.73852 | 24473 ft | 439 kts | 11° |
| 2026-05-06 12:36 | 37.57399 | 120.74976 | 24475 ft | 436 kts | 8° |
| 2026-05-06 12:37 | 37.60352 | 120.75681 | 24477 ft | 428 kts | 359° |
| 2026-05-06 12:37 | 37.63310 | 120.76039 | 24480 ft | 427 kts | 358° |
| 2026-05-06 12:37 | 37.66268 | 120.76392 | 24479 ft | 427 kts | 358° |
| 2026-05-06 12:37 | 37.69227 | 120.76744 | 24485 ft | 427 kts | 358° |
| 2026-05-06 12:38 | 37.72183 | 120.77094 | 24487 ft | 427 kts | 358° |
| 2026-05-06 12:38 | 37.75142 | 120.77444 | 24491 ft | 427 kts | 358° |
| 2026-05-06 12:38 | 37.78101 | 120.77796 | 24494 ft | 427 kts | 359° |
| 2026-05-06 12:38 | 37.81057 | 120.78151 | 24497 ft | 427 kts | 359° |
| 2026-05-06 12:39 | 37.84010 | 120.78506 | 24497 ft | 426 kts | 359° |
| 2026-05-06 12:39 | 37.86959 | 120.78861 | 24498 ft | 426 kts | 359° |
| 2026-05-06 12:39 | 37.89914 | 120.79214 | 24502 ft | 426 kts | 359° |
| 2026-05-06 12:39 | 37.92858 | 120.79563 | 24500 ft | 426 kts | 359° |
| 2026-05-06 12:40 | 37.95809 | 120.79917 | 24497 ft | 425 kts | 359° |
| 2026-05-06 12:40 | 37.98752 | 120.80400 | 24493 ft | 431 kts | 6° |
| 2026-05-06 12:40 | 38.01645 | 120.81519 | 24499 ft | 439 kts | 17° |
| 2026-05-06 12:40 | 38.04382 | 120.83311 | 24498 ft | 445 kts | 25° |
| 2026-05-06 12:41 | 38.07047 | 120.85320 | 24496 ft | 446 kts | 25° |
| 2026-05-06 12:41 | 38.09715 | 120.87326 | 24484 ft | 446 kts | 25° |
| 2026-05-06 12:41 | 38.12384 | 120.89331 | 24489 ft | 446 kts | 25° |
| 2026-05-06 12:41 | 38.15055 | 120.91336 | 24485 ft | 446 kts | 25° |
| 2026-05-06 12:42 | 38.17727 | 120.93346 | 24487 ft | 446 kts | 25° |
| 2026-05-06 12:42 | 38.20395 | 120.95360 | 24486 ft | 447 kts | 26° |
| 2026-05-06 12:42 | 38.22909 | 120.97733 | 24487 ft | 454 kts | 37° |
| 2026-05-06 12:42 | 38.25080 | 121.00685 | 24483 ft | 460 kts | 49° |
| 2026-05-06 12:43 | 38.26816 | 121.04120 | 24476 ft | 465 kts | 60° |
| 2026-05-06 12:43 | 38.28161 | 121.07873 | 24483 ft | 466 kts | 64° |
| 2026-05-06 12:43 | 38.29453 | 121.11599 | 24477 ft | 466 kts | 64° |
| 2026-05-06 12:43 | 38.30762 | 121.15370 | 24476 ft | 466 kts | 64° |
| 2026-05-06 12:44 | 38.32074 | 121.19148 | 24477 ft | 467 kts | 64° |
| 2026-05-06 12:44 | 38.33388 | 121.22929 | 24478 ft | 467 kts | 64° |
| 2026-05-06 12:44 | 38.34700 | 121.26709 | 24476 ft | 467 kts | 64° |
| 2026-05-06 12:44 | 38.36011 | 121.30496 | 24479 ft | 467 kts | 64° |
| 2026-05-06 12:45 | 38.37321 | 121.34280 | 24482 ft | 467 kts | 64° |
| 2026-05-06 12:45 | 38.38629 | 121.38068 | 24482 ft | 467 kts | 64° |
| 2026-05-06 12:45 | 38.41232 | 121.45652 | 24486 ft | 467 kts | 64° |
| 2026-05-06 12:46 | 38.42593 | 121.49403 | 24484 ft | 466 kts | 62° |
| 2026-05-06 12:46 | 38.44045 | 121.53104 | 24486 ft | 466 kts | 60° |
| 2026-05-06 12:46 | 38.45550 | 121.56759 | 24486 ft | 466 kts | 59° |
| 2026-05-06 12:46 | 38.47075 | 121.60402 | 24483 ft | 466 kts | 59° |
| 2026-05-06 12:47 | 38.48591 | 121.64054 | 24487 ft | 466 kts | 59° |
| 2026-05-06 12:47 | 38.50086 | 121.67719 | 24485 ft | 466 kts | 60° |
| 2026-05-06 12:47 | 38.51566 | 121.71408 | 24484 ft | 467 kts | 60° |
| 2026-05-06 12:47 | 38.53031 | 121.75107 | 24486 ft | 467 kts | 60° |
| 2026-05-06 12:48 | 38.54490 | 121.78813 | 24488 ft | 467 kts | 60° |
| 2026-05-06 12:48 | 38.55948 | 121.82520 | 24494 ft | 467 kts | 60° |
| 2026-05-06 12:48 | 38.57409 | 121.86223 | 24494 ft | 467 kts | 60° |
| 2026-05-06 12:48 | 38.58877 | 121.89930 | 24497 ft | 467 kts | 60° |
| 2026-05-06 12:49 | 38.60344 | 121.93629 | 24496 ft | 467 kts | 60° |
| 2026-05-06 12:49 | 38.61814 | 121.97336 | 24506 ft | 467 kts | 60° |
| 2026-05-06 12:49 | 38.63283 | 122.01044 | 24503 ft | 467 kts | 60° |
| 2026-05-06 12:49 | 38.64750 | 122.04756 | 24509 ft | 468 kts | 60° |
| 2026-05-06 12:50 | 38.66230 | 122.08507 | 24680 ft | 476 kts | 60° |
| 2026-05-06 12:50 | 38.67833 | 122.12203 | 25076 ft | 474 kts | 52° |
| 2026-05-06 12:50 | 38.69853 | 122.15507 | 25500 ft | 469 kts | 41° |
| 2026-05-06 12:50 | 38.72248 | 122.18295 | 25940 ft | 462 kts | 31° |
| 2026-05-06 12:51 | 38.74911 | 122.20537 | 26354 ft | 457 kts | 24° |
| 2026-05-06 12:51 | 38.77627 | 122.22664 | 26495 ft | 458 kts | 25° |
| 2026-05-06 12:51 | 38.80341 | 122.24792 | 26519 ft | 457 kts | 25° |
| 2026-05-06 12:51 | 38.83052 | 122.26925 | 26517 ft | 457 kts | 25° |
| 2026-05-06 12:52 | 38.85762 | 122.29065 | 26519 ft | 457 kts | 25° |
| 2026-05-06 12:52 | 38.88471 | 122.31215 | 26521 ft | 458 kts | 25° |
| 2026-05-06 12:52 | 38.91176 | 122.33365 | 26519 ft | 458 kts | 25° |
| 2026-05-06 12:52 | 38.93887 | 122.35521 | 26520 ft | 458 kts | 25° |
| 2026-05-06 12:53 | 38.96596 | 122.37672 | 26519 ft | 458 kts | 25° |
| 2026-05-06 12:53 | 38.99310 | 122.39826 | 26519 ft | 458 kts | 25° |
| 2026-05-06 12:53 | 39.02022 | 122.41981 | 26517 ft | 458 kts | 25° |
| 2026-05-06 12:53 | 39.04733 | 122.44140 | 26519 ft | 458 kts | 25° |
| 2026-05-06 12:54 | 39.07444 | 122.46299 | 26523 ft | 459 kts | 25° |
| 2026-05-06 12:54 | 39.10158 | 122.48459 | 26523 ft | 459 kts | 25° |
| 2026-05-06 12:54 | 39.12873 | 122.50620 | 26523 ft | 459 kts | 25° |
| 2026-05-06 12:54 | 39.15589 | 122.52784 | 26528 ft | 459 kts | 25° |
| 2026-05-06 12:55 | 39.18305 | 122.54952 | 26531 ft | 459 kts | 25° |
| 2026-05-06 12:55 | 39.20102 | 122.56389 | 26532 ft | 459 kts | 25° |
| 2026-05-06 12:55 | 39.22817 | 122.58563 | 26543 ft | 459 kts | 25° |
| 2026-05-06 12:55 | 39.26445 | 122.61475 | 26542 ft | 459 kts | 25° |
| 2026-05-06 12:56 | 39.28253 | 122.62892 | 26539 ft | 458 kts | 24° |
| 2026-05-06 12:56 | 39.31011 | 122.64942 | 26539 ft | 457 kts | 22° |
| 2026-05-06 12:56 | 39.33794 | 122.66909 | 26542 ft | 456 kts | 21° |
| 2026-05-06 12:56 | 39.36587 | 122.68837 | 26538 ft | 455 kts | 21° |
| 2026-05-06 12:57 | 39.40288 | 122.71392 | 26548 ft | 456 kts | 21° |
| 2026-05-06 12:57 | 39.43076 | 122.73347 | 26545 ft | 456 kts | 22° |
| 2026-05-06 12:57 | 39.44954 | 122.74678 | 26540 ft | 456 kts | 22° |
| 2026-05-06 12:57 | 39.47729 | 122.76661 | 26542 ft | 456 kts | 22° |
| 2026-05-06 12:58 | 39.50502 | 122.78659 | 26541 ft | 456 kts | 22° |
| 2026-05-06 12:58 | 39.53273 | 122.80661 | 26545 ft | 456 kts | 22° |
| 2026-05-06 12:58 | 39.56041 | 122.82658 | 26553 ft | 455 kts | 22° |
| 2026-05-06 12:58 | 39.58709 | 122.84907 | 26544 ft | 465 kts | 37° |
| 2026-05-06 12:59 | 39.60861 | 122.88129 | 26541 ft | 482 kts | 50° |
| 2026-05-06 12:59 | 39.62836 | 122.91670 | 26534 ft | 487 kts | 51° |
| 2026-05-06 12:59 | 39.64809 | 122.95247 | 26534 ft | 488 kts | 51° |
| 2026-05-06 12:59 | 39.66781 | 122.98828 | 26536 ft | 488 kts | 51° |
| 2026-05-06 13:00 | 39.68754 | 123.02414 | 26536 ft | 488 kts | 51° |
| 2026-05-06 13:00 | 39.70725 | 123.06000 | 26541 ft | 488 kts | 51° |
| 2026-05-06 13:00 | 39.72694 | 123.09584 | 26540 ft | 488 kts | 51° |
| 2026-05-06 13:00 | 39.74666 | 123.13174 | 26540 ft | 488 kts | 51° |
| 2026-05-06 13:01 | 39.76634 | 123.16760 | 26541 ft | 488 kts | 51° |
| 2026-05-06 13:01 | 39.78602 | 123.20352 | 26544 ft | 488 kts | 51° |
| 2026-05-06 13:01 | 39.80570 | 123.23946 | 26544 ft | 488 kts | 51° |
| 2026-05-06 13:01 | 39.82546 | 123.27528 | 26546 ft | 486 kts | 48° |
| 2026-05-06 13:02 | 39.84885 | 123.30612 | 26541 ft | 474 kts | 30° |
| 2026-05-06 13:02 | 39.87685 | 123.32736 | 26542 ft | 462 kts | 18° |
| 2026-05-06 13:02 | 39.90495 | 123.34831 | 26535 ft | 471 kts | 29° |
| 2026-05-06 13:02 | 39.93138 | 123.37363 | 26532 ft | 473 kts | 30° |
| 2026-05-06 13:03 | 39.95773 | 123.39934 | 26536 ft | 473 kts | 30° |
| 2026-05-06 13:03 | 39.98405 | 123.42508 | 26532 ft | 473 kts | 30° |
| 2026-05-06 13:03 | 40.01042 | 123.45086 | 26535 ft | 474 kts | 30° |
| 2026-05-06 13:03 | 40.03678 | 123.47661 | 26535 ft | 474 kts | 30° |
| 2026-05-06 13:04 | 40.06203 | 123.50465 | 26533 ft | 481 kts | 39° |
| 2026-05-06 13:04 | 40.08559 | 123.53576 | 26541 ft | 482 kts | 40° |
| 2026-05-06 13:04 | 40.10900 | 123.56713 | 26543 ft | 482 kts | 40° |
| 2026-05-06 13:04 | 40.13237 | 123.59854 | 26539 ft | 482 kts | 40° |
| 2026-05-06 13:05 | 40.15569 | 123.62995 | 26544 ft | 482 kts | 40° |
| 2026-05-06 13:05 | 40.17906 | 123.66131 | 26539 ft | 482 kts | 40° |
| 2026-05-06 13:05 | 40.20245 | 123.69269 | 26540 ft | 482 kts | 40° |
| 2026-05-06 13:05 | 40.22587 | 123.72413 | 26540 ft | 482 kts | 40° |
| 2026-05-06 13:06 | 40.24927 | 123.75556 | 26540 ft | 482 kts | 40° |
| 2026-05-06 13:06 | 40.27272 | 123.78701 | 26539 ft | 483 kts | 40° |
| 2026-05-06 13:06 | 40.29616 | 123.81844 | 26534 ft | 482 kts | 40° |
| 2026-05-06 13:06 | 40.31961 | 123.84986 | 26545 ft | 482 kts | 40° |
| 2026-05-06 13:07 | 40.34311 | 123.88129 | 26549 ft | 483 kts | 40° |
| 2026-05-06 13:07 | 40.36661 | 123.91271 | 26546 ft | 483 kts | 40° |
| 2026-05-06 13:07 | 40.39010 | 123.94411 | 26547 ft | 483 kts | 40° |
| 2026-05-06 13:07 | 40.41363 | 123.97555 | 26551 ft | 483 kts | 40° |
| 2026-05-06 13:08 | 40.43715 | 124.00695 | 26543 ft | 482 kts | 40° |
| 2026-05-06 13:08 | 40.46061 | 124.03825 | 26151 ft | 479 kts | 40° |
| 2026-05-06 13:08 | 40.48389 | 124.06924 | 25614 ft | 475 kts | 40° |
| 2026-05-06 13:08 | 40.50702 | 124.09991 | 25095 ft | 470 kts | 40° |
| 2026-05-06 13:09 | 40.52999 | 124.13022 | 24599 ft | 466 kts | 40° |
| 2026-05-06 13:09 | 40.55281 | 124.16022 | 24113 ft | 462 kts | 40° |
| 2026-05-06 13:09 | 40.57555 | 124.18995 | 23631 ft | 459 kts | 40° |
| 2026-05-06 13:09 | 40.59813 | 124.21936 | 23096 ft | 455 kts | 40° |
| 2026-05-06 13:10 | 40.62059 | 124.24848 | 22562 ft | 452 kts | 40° |
| 2026-05-06 13:10 | 40.64294 | 124.27734 | 22067 ft | 448 kts | 40° |
| 2026-05-06 13:10 | 40.66458 | 124.30673 | 21596 ft | 447 kts | 47° |
| 2026-05-06 13:10 | 40.68360 | 124.33905 | 21115 ft | 445 kts | 50° |
| 2026-05-06 13:11 | 40.70220 | 124.37152 | 20653 ft | 442 kts | 50° |
| 2026-05-06 13:11 | 40.72061 | 124.40366 | 20353 ft | 434 kts | 50° |
| 2026-05-06 13:11 | 40.73859 | 124.43501 | 20220 ft | 423 kts | 51° |
| 2026-05-06 13:11 | 40.75414 | 124.46754 | 19932 ft | 418 kts | 59° |
| 2026-05-06 13:12 | 40.76799 | 124.50105 | 19532 ft | 414 kts | 60° |
| 2026-05-06 13:12 | 40.78160 | 124.53439 | 19112 ft | 411 kts | 60° |
| 2026-05-06 13:12 | 40.79392 | 124.56837 | 18691 ft | 410 kts | 72° |
| 2026-05-06 13:12 | 40.80060 | 124.60472 | 18296 ft | 407 kts | 79° |
| 2026-05-06 13:13 | 40.80600 | 124.64122 | 17868 ft | 404 kts | 80° |
| 2026-05-06 13:13 | 40.81257 | 124.67710 | 17426 ft | 401 kts | 68° |
| 2026-05-06 13:13 | 40.82636 | 124.70851 | 17035 ft | 394 kts | 47° |
| 2026-05-06 13:13 | 40.84651 | 124.73223 | 16623 ft | 385 kts | 31° |
| 2026-05-06 13:14 | 40.86797 | 124.75232 | 16239 ft | 383 kts | 30° |
| 2026-05-06 13:14 | 40.88963 | 124.77233 | 15665 ft | 377 kts | 30° |
| 2026-05-06 13:14 | 40.91105 | 124.79209 | 14960 ft | 374 kts | 30° |
| 2026-05-06 13:14 | 40.93232 | 124.81166 | 14250 ft | 371 kts | 30° |
| 2026-05-06 13:15 | 40.95396 | 124.82986 | 13877 ft | 366 kts | 19° |
| 2026-05-06 13:15 | 40.97785 | 124.83825 | 13738 ft | 349 kts | 356° |
| 2026-05-06 13:15 | 41.00125 | 124.83462 | 13750 ft | 335 kts | 337° |
| 2026-05-06 13:15 | 41.02418 | 124.82823 | 13749 ft | 340 kts | 344° |
| 2026-05-06 13:16 | 41.04763 | 124.82402 | 13629 ft | 339 kts | 345° |
| 2026-05-06 13:16 | 41.07103 | 124.82001 | 13191 ft | 338 kts | 345° |
| 2026-05-06 13:16 | 41.09431 | 124.81594 | 12744 ft | 338 kts | 345° |
| 2026-05-06 13:16 | 41.11752 | 124.81188 | 12350 ft | 335 kts | 345° |
| 2026-05-06 13:17 | 41.14055 | 124.80779 | 11949 ft | 333 kts | 345° |
| 2026-05-06 13:17 | 41.16335 | 124.80349 | 11540 ft | 328 kts | 342° |
| 2026-05-06 13:17 | 41.18433 | 124.79367 | 11139 ft | 315 kts | 326° |
| 2026-05-06 13:17 | 41.20385 | 124.78064 | 10709 ft | 313 kts | 327° |
| 2026-05-06 13:18 | 41.22322 | 124.76756 | 10251 ft | 312 kts | 327° |
| 2026-05-06 13:18 | 41.24256 | 124.75501 | 10034 ft | 306 kts | 333° |
| 2026-05-06 13:18 | 41.26279 | 124.74709 | 9923 ft | 299 kts | 340° |
| 2026-05-06 13:18 | 41.28264 | 124.74035 | 9726 ft | 291 kts | 340° |
| 2026-05-06 13:19 | 41.30219 | 124.73372 | 9352 ft | 289 kts | 340° |
| 2026-05-06 13:19 | 41.32153 | 124.72697 | 9006 ft | 286 kts | 340° |
| 2026-05-06 13:19 | 41.33997 | 124.71812 | 8879 ft | 278 kts | 326° |
| 2026-05-06 13:19 | 41.35670 | 124.70515 | 8889 ft | 279 kts | 325° |
| 2026-05-06 13:20 | 41.37349 | 124.69218 | 8892 ft | 279 kts | 325° |
| 2026-05-06 13:20 | 41.39026 | 124.67923 | 8885 ft | 279 kts | 325° |
| 2026-05-06 13:20 | 41.40704 | 124.66625 | 8890 ft | 279 kts | 326° |
| 2026-05-06 13:20 | 41.42382 | 124.65327 | 8888 ft | 280 kts | 325° |
| 2026-05-06 13:21 | 41.44064 | 124.64024 | 8886 ft | 279 kts | 324° |
| 2026-05-06 13:21 | 41.45612 | 124.62508 | 8893 ft | 275 kts | 316° |
| 2026-05-06 13:21 | 41.47088 | 124.60890 | 8886 ft | 274 kts | 316° |
| 2026-05-06 13:21 | 41.48555 | 124.59267 | 8889 ft | 274 kts | 316° |
| 2026-05-06 13:22 | 41.50018 | 124.57645 | 8891 ft | 273 kts | 316° |
| 2026-05-06 13:22 | 41.51480 | 124.56026 | 8888 ft | 273 kts | 316° |
| 2026-05-06 13:22 | 41.52940 | 124.54404 | 8892 ft | 273 kts | 315° |
| 2026-05-06 13:22 | 41.54396 | 124.52781 | 8890 ft | 272 kts | 315° |
| 2026-05-06 13:23 | 41.55848 | 124.51166 | 8887 ft | 272 kts | 316° |
| 2026-05-06 13:23 | 41.57302 | 124.49549 | 8878 ft | 272 kts | 315° |
| 2026-05-06 13:23 | 41.58748 | 124.47944 | 8508 ft | 269 kts | 315° |
| 2026-05-06 13:23 | 41.60183 | 124.46346 | 8090 ft | 268 kts | 315° |
| 2026-05-06 13:24 | 41.61608 | 124.44758 | 7886 ft | 266 kts | 315° |
| 2026-05-06 13:24 | 41.63022 | 124.43180 | 7878 ft | 264 kts | 314° |
| 2026-05-06 13:24 | 41.64433 | 124.41601 | 7889 ft | 265 kts | 315° |
| 2026-05-06 13:24 | 41.65851 | 124.40014 | 7887 ft | 266 kts | 316° |
| 2026-05-06 13:25 | 41.67119 | 124.38250 | 7890 ft | 260 kts | 297° |
| 2026-05-06 13:25 | 41.67646 | 124.35988 | 7888 ft | 255 kts | 274° |
| 2026-05-06 13:25 | 41.67684 | 124.33615 | 7890 ft | 256 kts | 263° |
| 2026-05-06 13:25 | 41.67081 | 124.31386 | 7894 ft | 258 kts | 243° |
| 2026-05-06 13:26 | 41.66156 | 124.29321 | 7893 ft | 260 kts | 240° |
| 2026-05-06 13:26 | 41.65187 | 124.27293 | 7888 ft | 259 kts | 240° |
| 2026-05-06 13:26 | 41.64312 | 124.25204 | 7893 ft | 257 kts | 250° |
| 2026-05-06 13:26 | 41.63678 | 124.22980 | 7891 ft | 256 kts | 250° |
| 2026-05-06 13:27 | 41.63037 | 124.20762 | 7810 ft | 255 kts | 250° |
| 2026-05-06 13:27 | 41.62399 | 124.18557 | 7387 ft | 254 kts | 250° |
| 2026-05-06 13:27 | 41.61761 | 124.16354 | 6975 ft | 254 kts | 250° |
| 2026-05-06 13:27 | 41.61126 | 124.14152 | 6602 ft | 254 kts | 250° |
| 2026-05-06 13:28 | 41.60491 | 124.11952 | 6195 ft | 253 kts | 250° |
| 2026-05-06 13:28 | 41.59859 | 124.09764 | 5901 ft | 251 kts | 250° |
| 2026-05-06 13:28 | 41.59225 | 124.07565 | 5892 ft | 256 kts | 250° |
| 2026-05-06 13:28 | 41.58583 | 124.05349 | 5891 ft | 256 kts | 250° |
| 2026-05-06 13:29 | 41.57940 | 124.03131 | 5891 ft | 256 kts | 250° |
| 2026-05-06 13:29 | 41.57307 | 124.00941 | 5890 ft | 256 kts | 250° |
| 2026-05-06 13:29 | 41.56659 | 123.98705 | 5688 ft | 253 kts | 250° |
| 2026-05-06 13:29 | 41.56023 | 123.96509 | 5228 ft | 255 kts | 250° |
| 2026-05-06 13:30 | 41.55383 | 123.94304 | 4936 ft | 254 kts | 250° |
| 2026-05-06 13:30 | 41.54739 | 123.92085 | 4890 ft | 258 kts | 250° |
| 2026-05-06 13:30 | 41.54092 | 123.89853 | 4892 ft | 258 kts | 250° |
| 2026-05-06 13:30 | 41.53445 | 123.87621 | 4894 ft | 258 kts | 250° |
| 2026-05-06 13:31 | 41.52796 | 123.85388 | 4896 ft | 259 kts | 250° |
| 2026-05-06 13:31 | 41.52143 | 123.83152 | 4895 ft | 258 kts | 250° |
| 2026-05-06 13:31 | 41.51491 | 123.80921 | 4898 ft | 259 kts | 250° |
| 2026-05-06 13:31 | 41.50836 | 123.78685 | 4901 ft | 259 kts | 250° |
| 2026-05-06 13:32 | 41.50182 | 123.76451 | 4899 ft | 259 kts | 250° |
| 2026-05-06 13:32 | 41.49527 | 123.74216 | 4901 ft | 259 kts | 250° |
| 2026-05-06 13:32 | 41.48873 | 123.71981 | 4899 ft | 258 kts | 249° |
| 2026-05-06 13:32 | 41.48219 | 123.69747 | 4899 ft | 259 kts | 250° |
| 2026-05-06 13:33 | 41.47565 | 123.67512 | 4901 ft | 259 kts | 250° |
| 2026-05-06 13:33 | 41.46908 | 123.65269 | 4901 ft | 259 kts | 250° |
| 2026-05-06 13:33 | 41.46249 | 123.63029 | 4899 ft | 259 kts | 249° |
| 2026-05-06 13:33 | 41.45611 | 123.60875 | 4898 ft | 241 kts | 250° |
| 2026-05-06 13:34 | 41.45018 | 123.58868 | 4901 ft | 225 kts | 249° |
| 2026-05-06 13:34 | 41.44463 | 123.56981 | 4901 ft | 221 kts | 250° |
| 2026-05-06 13:34 | 41.43898 | 123.55056 | 4903 ft | 219 kts | 249° |
| 2026-05-06 13:34 | 41.43384 | 123.53146 | 4904 ft | 219 kts | 257° |
| 2026-05-06 13:35 | 41.43170 | 123.51147 | 4890 ft | 218 kts | 269° |
| 2026-05-06 13:35 | 41.43251 | 123.49136 | 4574 ft | 217 kts | 274° |
| 2026-05-06 13:35 | 41.43369 | 123.47124 | 4212 ft | 218 kts | 274° |
| 2026-05-06 13:35 | 41.43482 | 123.45118 | 3935 ft | 215 kts | 274° |
| 2026-05-06 13:36 | 41.43590 | 123.43175 | 3901 ft | 207 kts | 274° |
| 2026-05-06 13:36 | 41.43901 | 123.41325 | 3894 ft | 206 kts | 300° |
| 2026-05-06 13:36 | 41.44837 | 123.39901 | 3771 ft | 205 kts | 317° |
| 2026-05-06 13:36 | 41.45556 | 123.39073 | 3543 ft | 207 kts | 320° |
| 2026-05-06 13:37 | 41.47040 | 123.37424 | 3135 ft | 208 kts | 320° |
| 2026-05-06 13:37 | 41.47772 | 123.36605 | 3027 ft | 207 kts | 320° |
| 2026-05-06 13:37 | 41.49235 | 123.34962 | 3006 ft | 207 kts | 320° |
| 2026-05-06 13:37 | 41.49986 | 123.34171 | 2999 ft | 201 kts | 328° |
| 2026-05-06 13:38 | 41.51691 | 123.33328 | 3006 ft | 198 kts | 354° |
| 2026-05-06 13:38 | 41.53057 | 123.33397 | 2930 ft | 197 kts | 13° |
| 2026-05-06 13:38 | 41.54287 | 123.34046 | 2786 ft | 185 kts | 32° |
| 2026-05-06 13:38 | 41.54975 | 123.34759 | 2624 ft | 186 kts | 45° |
| 2026-05-06 13:39 | 41.56108 | 123.36449 | 2301 ft | 180 kts | 48° |
| 2026-05-06 13:39 | 41.56656 | 123.37272 | 2144 ft | 171 kts | 48° |
| 2026-05-06 13:39 | 41.57644 | 123.38757 | 1869 ft | 151 kts | 48° |
| 2026-05-06 13:39 | 41.58104 | 123.39449 | 1738 ft | 145 kts | 48° |
| 2026-05-06 13:40 | 41.58971 | 123.40755 | 1467 ft | 140 kts | 48° |
| 2026-05-06 13:40 | 41.59405 | 123.41410 | 1340 ft | 139 kts | 47° |
| 2026-05-06 13:40 | 41.60044 | 123.42372 | 1138 ft | 138 kts | 47° |
| 2026-05-06 13:40 | 41.60678 | 123.43328 | 913 ft | 137 kts | 47° |
| 2026-05-06 13:41 | 41.61309 | 123.44279 | 737 ft | 137 kts | 47° |
| 2026-05-06 13:41 | 41.61938 | 123.45231 | 531 ft | 136 kts | 48° |
| 2026-05-06 13:41 | 41.62565 | 123.46174 | 378 ft | 136 kts | 48° |
| 2026-05-06 13:41 | 41.63185 | 123.47116 | 215 ft | 132 kts | 49° |
| 2026-05-06 13:42 | 41.63715 | 123.47920 | 203 ft | 93 kts | 48° |
| 2026-05-06 13:42 | 41.64027 | 123.48391 | 209 ft | 45 kts | 49° |
| 2026-05-06 13:42 | 41.64175 | 123.48614 | 213 ft | 26 kts | 49° |
| 2026-05-06 13:42 | 41.64251 | 123.48801 | 210 ft | 13 kts | 71° |
| 2026-05-06 13:43 | 41.64267 | 123.48881 | 211 ft | 3 kts | 80° |
| 2026-05-06 13:43 | 41.64270 | 123.48904 | 208 ft | 2 kts | 80° |
| 2026-05-06 13:43 | 41.64277 | 123.48950 | 217 ft | 7 kts | 78° |
| 2026-05-06 13:43 | 41.64279 | 123.48961 | 216 ft | 0 kts | 78° |
| 2026-05-06 13:44 | 41.64284 | 123.49006 | 209 ft | 7 kts | 88° |
| 2026-05-06 13:44 | 41.64260 | 123.49062 | 210 ft | 9 kts | 137° |
| 2026-05-06 13:44 | 41.64219 | 123.49112 | 215 ft | 7 kts | 137° |
| 2026-05-06 13:44 | 41.64199 | 123.49132 | 211 ft | 0 kts | 146° |
| 2026-05-06 13:45 | 41.64189 | 123.49144 | 213 ft | 5 kts | 140° |
| 2026-05-06 13:45 | 41.64086 | 123.49253 | 212 ft | 8 kts | 156° |
| 2026-05-06 13:45 | 41.64035 | 123.49241 | 211 ft | 7 kts | 216° |
| 2026-05-06 13:46 | 41.64005 | 123.49195 | 208 ft | 6 kts | 230° |
| 2026-05-06 13:46 | 41.63979 | 123.49155 | 211 ft | 5 kts | 229° |
| 2026-05-06 13:46 | 41.63957 | 123.49121 | 207 ft | 4 kts | 229° |
| 2026-05-06 13:46 | 41.63938 | 123.49092 | 212 ft | 5 kts | 229° |
| 2026-05-06 13:47 | 41.63901 | 123.49035 | 213 ft | 9 kts | 229° |
| 2026-05-06 13:47 | 41.63861 | 123.48975 | 207 ft | 8 kts | 228° |
| 2026-05-06 13:47 | 41.63826 | 123.48924 | 214 ft | 7 kts | 227° |
| 2026-05-06 13:47 | 41.63796 | 123.48879 | 213 ft | 6 kts | 228° |
| 2026-05-06 13:48 | 41.63770 | 123.48840 | 207 ft | 5 kts | 228° |
| 2026-05-06 13:48 | 41.63744 | 123.48825 | 213 ft | 4 kts | 175° |
| 2026-05-06 13:48 | 41.63724 | 123.48840 | 210 ft | 3 kts | 142° |
| 2026-05-06 13:48 | 41.63706 | 123.48860 | 210 ft | 2 kts | 140° |
| 2026-05-06 13:49 | 41.63695 | 123.48873 | 215 ft | 2 kts | 139° |
| 2026-05-06 13:49 | 41.63689 | 123.48880 | 209 ft | 1 kts | 139° |
| 2026-05-06 13:49 | 41.63687 | 123.48882 | 209 ft | 0 kts | 140° |